Accueil
METAR-TAF:

METAR-TAF

Aéroports :

Base aérienne de Florennes

Florennes, Belgique

latitude: 50-14N, longitude: 004-39E, altitude: 279 m

Observation

Le bulletin a été fait il y a 31 minutes, à 17:55 UTC
Vent 4 kt de ouest
Température 11°C
Humidité 40%
Pression 1018 hPa
Visibilité 10 km ou plus

METAR: EBFS 071755Z AUTO 28004KT 9999 FEW080/// BKN100/// BKN120/// 11/M02 Q1018 BLU

Heure: 20:26 (18:26 UTC)

Prévision

Le bulletin a été fait il y a 6 heures et 45 minutes, à 11:41 UTC
Prévision valable du 07 à 13 UTC au 07 à 22 UTC
Vent 10 kt de ouest/nord-ouest
Visibilité 10 km ou plus
Nuages épars à une hauteur de 4000 ft
Temporairement
du 07 à 13 UTC au 07 à 16 UTC
Vent 10 kt de ouest/nord-ouest avec des rafales jusqu'à 20 kt

TAF: EBFS 071141Z 0713/0722 29010KT 9999 SCT040 TEMPO 0713/0716 29010G20KT

Observations et prévisions météorologiques de plus de 4000 aéroports (messages METAR et TAF).

Les stations disponibles sont représentées par des disques jaunes et rouges sur la carte.

Passer la souris dessus pour voir le nom de la station.

Cliquer dessus pour voir les observations et prévisions météorologiques.

Pour changer de carte: cliquez sur les boutons verts avec une croix noire pour zoomer, sur le bouton vert avec un tiret pour effectuer un zoom arrière, ou sur les flèches vertes pour les cartes adjacentes.


METAR-TAF: